Bei Facebook empfehlenBei Twitter postenGoogle plusPinterest

Das Wetter im Erzgebirge am 15.04.2017

Wetter und Klima am 15.04.2017 Holzhau im Erzgebirge (630m ü.NN)
Letzte gemessene Temperatur und Uhrzeit der Messung23:45:00 Uhr4.50 °C
Temperatur (Maximum / Höchstwert) und Uhrzeit der Messung14:00:00 Uhr12.40 °C
Temperatur (Minimum / Tiefstwert) und Uhrzeit der Messung06:30:003.30 °C
Errechneter Absolutwert der Temperaturschwankungen zwischen Tmin und Tmax des Tages9.10 K
Errechnete Tagesmitteltemperatur6.53438 °C
Gesamt - Niederschlag des Tages (in flüssiger Form)0.00 Liter / m²
Luftdruck (Maximum / Höchstwert) und Zeitpunkt der Messung00:30:00 Uhr1010.40 hPa
Luftdruck (Minimum / Tiefstwert) und Zeitpunkt der Messung18:45:00 Uhr1006.00 hPa
Errechneter Absolutwert der Luftdruckschwankungen des Tages4.40 hPa
Höchste gemessene Windgeschwindigkeit und Uhrzeit der Messung12:15:00 Uhr18.00 km/h
Errechnete Windhäufigkeit in Relation zu den Messwerten des Tages26.04167 %
Niedrigste Windkühle (Windchill) und Zeitpunkt der Messung06:30:00 Uhr3.30 °C
Taupunkt (Maximum / Höchstwert) und Uhrzeit der Messung13:00:00 Uhr4.60 °C
Taupunkt (Minimum / Tiefstwert) und Uhrzeit der Messung01:45:001.30 °C
Anzahl der automatisch eingelesenen Messwerte 96

Detaillierte Wetter- und Klima- Messwerte für den 15.04.2017 in Holzhau im Erzgebirge (630m ü.NN)
ZeitTemperaturLuftdruckRel. LuftfeuchteWindWindrichtungWindchillTaupunktNiederschlag l/m²
23:45:004.50 °C1008.10 hPa88.00 %2.70 °C 
23:30:004.50 °C1008.00 hPa88.00 %2.70 °C 
23:15:004.60 °C1008.10 hPa88.00 %2.80 °C 
23:00:004.50 °C1008.00 hPa88.00 %2.70 °C 
22:45:004.50 °C1008.20 hPa88.00 %2.70 °C 
22:30:004.50 °C1008.00 hPa87.00 %3.60 km/hNW4.50 °C2.50 °C 
22:15:004.40 °C1008.10 hPa87.00 %2.40 °C 
22:00:004.40 °C1008.00 hPa87.00 %2.40 °C 
21:45:004.30 °C1007.80 hPa87.00 %2.30 °C 
21:30:004.20 °C1008.00 hPa87.00 %2.20 °C 
21:15:004.20 °C1007.90 hPa87.00 %2.20 °C 
21:00:004.20 °C1007.60 hPa87.00 %2.20 °C 
20:45:004.20 °C1007.60 hPa87.00 %2.20 °C 
20:30:004.20 °C1007.30 hPa87.00 %2.20 °C 
20:15:004.30 °C1007.20 hPa87.00 %2.30 °C 
20:00:004.40 °C1007.10 hPa86.00 %2.30 °C 
19:45:005.00 °C1006.90 hPa84.00 %2.50 °C 
19:30:006.40 °C1007.10 hPa81.00 %3.40 °C 
19:15:007.40 °C1006.10 hPa80.00 %2.16 km/hWNW7.40 °C4.20 °C 
19:00:007.70 °C1006.20 hPa79.00 %4.30 °C 
18:45:007.80 °C1006.00 hPa79.00 %0.36 km/hW7.80 °C4.40 °C 
18:30:007.80 °C1006.10 hPa78.00 %4.20 °C 
18:15:007.90 °C1006.20 hPa78.00 %0.72 km/hWNW7.90 °C4.30 °C 
18:00:008.10 °C1006.30 hPa78.00 %4.50 °C 
17:45:007.90 °C1006.60 hPa78.00 %4.30 °C 
17:30:007.90 °C1006.70 hPa78.00 %2.16 km/hWNW7.90 °C4.30 °C 
17:15:007.90 °C1006.70 hPa77.00 %8.28 km/hNW6.50 °C4.10 °C 
17:00:007.90 °C1006.80 hPa77.00 %4.10 °C 
16:45:008.00 °C1006.80 hPa76.00 %4.00 °C 
16:30:008.10 °C1006.70 hPa75.00 %6.12 km/hWSW7.30 °C3.90 °C 
16:15:008.30 °C1006.60 hPa75.00 %6.84 km/hWNW7.30 °C4.10 °C 
16:00:008.70 °C1006.60 hPa72.00 %1.44 km/hWNW8.70 °C3.90 °C 
15:45:008.90 °C1006.70 hPa70.00 %3.70 °C 
15:30:009.30 °C1006.60 hPa68.00 %3.70 °C 
15:15:009.90 °C1006.70 hPa66.00 %3.90 °C 
15:00:0010.60 °C1006.70 hPa66.00 %4.50 °C 
14:45:0010.10 °C1007.00 hPa65.00 %1.80 km/hWNW10.10 °C3.80 °C 
14:30:0010.80 °C1006.90 hPa62.00 %3.96 km/hW10.80 °C3.80 °C 
14:15:0011.90 °C1006.80 hPa57.00 %17.28 km/hW10.00 °C3.70 °C 
14:00:0012.40 °C1006.90 hPa58.00 %10.80 km/hSSW11.40 °C4.40 °C 
13:45:0012.40 °C1006.80 hPa58.00 %2.52 km/hW12.40 °C4.40 °C 
13:30:0011.60 °C1007.00 hPa60.00 %4.10 °C 
13:15:0011.60 °C1007.10 hPa59.00 %0.72 km/hW11.60 °C3.90 °C 
13:00:0011.40 °C1007.10 hPa63.00 %12.24 km/hN10.00 °C4.60 °C 
12:45:0011.40 °C1007.50 hPa61.00 %8.28 km/hW10.60 °C4.20 °C 
12:30:0011.30 °C1007.70 hPa61.00 %1.80 km/hNNW11.30 °C4.10 °C 
12:15:0011.40 °C1007.70 hPa59.00 %18.00 km/hNNW9.30 °C3.70 °C 
12:00:0011.60 °C1007.50 hPa58.00 %1.44 km/hWSW11.60 °C3.60 °C 
11:45:0010.90 °C1007.80 hPa58.00 %3.00 °C 
11:30:0011.00 °C1007.70 hPa58.00 %3.10 °C 
11:15:0010.90 °C1007.80 hPa59.00 %3.60 km/hNNW10.90 °C3.20 °C 
11:00:0010.40 °C1007.70 hPa60.00 %3.00 °C 
10:45:0010.20 °C1007.80 hPa62.00 %5.40 km/hWNW9.90 °C3.30 °C 
10:30:009.80 °C1007.80 hPa63.00 %4.32 km/hSW9.80 °C3.10 °C 
10:15:009.80 °C1007.90 hPa65.00 %11.16 km/hNW8.20 °C3.50 °C 
10:00:009.60 °C1007.80 hPa66.00 %3.60 °C 
09:45:009.30 °C1007.60 hPa67.00 %3.24 km/hWNW9.30 °C3.50 °C 
09:30:009.20 °C1007.60 hPa68.00 %3.60 °C 
09:15:008.80 °C1007.60 hPa71.00 %3.80 °C 
09:00:008.00 °C1007.80 hPa77.00 %4.20 °C 
08:45:007.10 °C1007.70 hPa82.00 %4.20 °C 
08:30:006.10 °C1007.60 hPa87.00 %4.10 °C 
08:15:005.20 °C1007.80 hPa88.00 %3.40 °C 
08:00:004.60 °C1008.00 hPa88.00 %2.80 °C 
07:45:004.00 °C1008.10 hPa88.00 %2.20 °C 
07:30:003.80 °C1008.00 hPa88.00 %2.00 °C 
07:15:003.50 °C1008.20 hPa88.00 %1.70 °C 
07:00:003.40 °C1008.20 hPa88.00 %1.60 °C 
06:45:003.40 °C1008.20 hPa88.00 %1.60 °C 
06:30:003.30 °C1008.40 hPa88.00 %1.50 °C 
06:15:003.30 °C1008.50 hPa88.00 %1.50 °C 
06:00:003.40 °C1008.60 hPa88.00 %1.60 °C 
05:45:003.40 °C1008.60 hPa88.00 %1.60 °C 
05:30:003.40 °C1008.70 hPa88.00 %1.60 °C 
05:15:003.40 °C1008.90 hPa87.00 %1.40 °C 
05:00:003.50 °C1009.20 hPa87.00 %1.50 °C 
04:45:003.40 °C1009.20 hPa87.00 %1.40 °C 
04:30:003.40 °C1009.30 hPa87.00 %1.40 °C 
04:15:003.40 °C1009.50 hPa87.00 %1.40 °C 
04:00:003.50 °C1009.40 hPa87.00 %1.50 °C 
03:45:003.50 °C1009.40 hPa87.00 %1.50 °C 
03:30:003.50 °C1009.50 hPa86.00 %1.40 °C 
03:15:003.60 °C1009.50 hPa86.00 %1.50 °C 
03:00:003.60 °C1009.70 hPa86.00 %1.50 °C 
02:45:003.60 °C1009.80 hPa86.00 %1.50 °C 
02:30:003.60 °C1009.90 hPa86.00 %1.50 °C 
02:15:003.60 °C1009.90 hPa86.00 %1.50 °C 
02:00:003.60 °C1009.90 hPa86.00 %1.50 °C 
01:45:003.60 °C1010.10 hPa85.00 %1.30 °C 
01:30:003.80 °C1010.10 hPa85.00 %1.50 °C 
01:15:003.90 °C1010.20 hPa84.00 %1.40 °C 
01:00:004.10 °C1010.30 hPa84.00 %1.60 °C 
00:45:004.10 °C1010.30 hPa84.00 %1.60 °C 
00:30:004.30 °C1010.40 hPa83.00 %1.70 °C 
00:15:004.60 °C1010.40 hPa83.00 %2.00 °C 
00:00:004.60 °C1010.40 hPa83.00 %2.00 °C 

Permanenter Link zu dieser Seite: Wetter im Erzgebirge am 15.04.2017
Performance-Info: Die Erstellung der Seite / Statistik(en) / Tabelle(n) erforderte 5 Datenbankserver-Abfrage(n) und dauerte 99 Millisekunden. (Dieser Messwert ist von der Gesamt-Auslastung des Servers abhängig.)
Erzgebirge - Wetter | Erzgebirge - Wetter (Mobilgeräte) | Komplette Klimadatenbank